^^
Station Historical Data
Daily Summary for October 15, 2017 Units:  Metric    English   Both
« Previous Day
Next Day »
Daily Weekly Monthly Yearly Custom
  High: Low: Average:
Temperature: 24.5 °C 8.3 °C 15.1 °C
Dew Point: 6.4 °C -11.4 °C 2 °C
Humidity: 77% 9% 48%
Wind Speed: 24.1km/h 0km/h 8.9km/h
Wind Gust: 29km/h - -
Wind- - SSW
Pressure: 1017.5 hPa 1013.4 hPa -
Precipitation: 0 mm    
Historical Graphs
 
 
Tabular Data for October 15, 2017
Time Temperature Dew Point Pressure Wind Wind Speed Wind Gust Humidity Rainfall Rate (Hourly) solar Conditions
00:00 13.8 °C 4.7 °C 1014.4 hPa South 9.7 km/h 11.3 km/h 54% 0 mm 0.0 W/m2
00:05 13.6 °C 4.5 °C 1014.4 hPa South 9.7 km/h 12.9 km/h 54% 0 mm 0.0 W/m2
00:10 13.5 °C 4.6 °C 1014.4 hPa South 9.7 km/h 11.3 km/h 55% 0 mm 0.0 W/m2
00:15 13.3 °C 4.4 °C 1014.4 hPa South 7.9 km/h 11.3 km/h 55% 0 mm 0.0 W/m2
00:26 13.2 °C 4.6 °C 1014.4 hPa South 7.9 km/h 9.7 km/h 56% 0 mm 0.0 W/m2
00:35 13.1 °C 4.5 °C 1014.4 hPa South 6.4 km/h 8 km/h 56% 0 mm 0.0 W/m2
00:46 12.9 °C 4.6 °C 1014.1 hPa South 7.9 km/h 9.7 km/h 57% 0 mm 0.0 W/m2
00:51 12.8 °C 4.5 °C 1014.1 hPa South 7.9 km/h 11.3 km/h 57% 0 mm 0.0 W/m2
00:56 12.7 °C 4.4 °C 1014.1 hPa South 11.1 km/h 11.3 km/h 57% 0 mm 0.0 W/m2
01:01 12.6 °C 4.6 °C 1014.1 hPa South 4.7 km/h 8 km/h 58% 0 mm 0.0 W/m2
01:06 12.5 °C 4.5 °C 1014.1 hPa Calm     58% 0 mm 0.0 W/m2
01:11 12.4 °C 4.4 °C 1013.8 hPa Calm     58% 0 mm 0.0 W/m2
01:17 12.3 °C 4.3 °C 1013.8 hPa Calm     58% 0 mm 0.0 W/m2
01:22 12.2 °C 4.4 °C 1013.4 hPa Calm     59% 0 mm 0.0 W/m2
01:27 12 °C 4.2 °C 1013.4 hPa Calm     59% 0 mm 0.0 W/m2
01:32 11.9 °C 4.1 °C 1013.4 hPa Calm     59% 0 mm 0.0 W/m2
01:37 11.7 °C 3.7 °C 1013.4 hPa Calm     58% 0 mm 0.0 W/m2
01:42 11.4 °C 3.7 °C 1013.4 hPa Calm     59% 0 mm 0.0 W/m2
01:48 11.2 °C 3.7 °C 1013.4 hPa Calm     60% 0 mm 0.0 W/m2
01:53 11.1 °C 3.9 °C 1013.4 hPa Calm     61% 0 mm 0.0 W/m2
01:58 10.9 °C 3.7 °C 1013.4 hPa Calm     61% 0 mm 0.0 W/m2
02:03 10.7 °C 3.7 °C 1013.4 hPa Calm     62% 0 mm 0.0 W/m2
02:08 10.6 °C 3.6 °C 1013.4 hPa Calm     62% 0 mm 0.0 W/m2
02:13 10.6 °C 4.1 °C 1013.4 hPa Calm     64% 0 mm 0.0 W/m2
02:19 10.6 °C 4.1 °C 1013.8 hPa Calm     64% 0 mm 0.0 W/m2
02:24 10.7 °C 4.2 °C 1013.4 hPa Calm     64% 0 mm 0.0 W/m2
02:34 10.8 °C 4 °C 1013.4 hPa Calm     63% 0 mm 0.0 W/m2
02:39 10.7 °C 4.2 °C 1013.4 hPa Calm     64% 0 mm 0.0 W/m2
02:44 10.6 °C 4.1 °C 1013.4 hPa Calm     64% 0 mm 0.0 W/m2
02:50 10.4 °C 3.7 °C 1013.4 hPa Calm     63% 0 mm 0.0 W/m2
02:55 10.2 °C 3.5 °C 1013.4 hPa Calm     63% 0 mm 0.0 W/m2
03:05 10.1 °C 4 °C 1013.4 hPa Calm     66% 0 mm 0.0 W/m2
03:10 10.1 °C 4.2 °C 1013.4 hPa Calm     67% 0 mm 0.0 W/m2
03:15 9.9 °C 3.6 °C 1013.4 hPa Calm     65% 0 mm 0.0 W/m2
03:20 9.8 °C 4 °C 1013.4 hPa Calm     67% 0 mm 0.0 W/m2
03:25 9.8 °C 4.2 °C 1013.8 hPa Calm     68% 0 mm 0.0 W/m2
03:31 9.7 °C 3.9 °C 1013.4 hPa Calm     67% 0 mm 0.0 W/m2
03:41 9.6 °C 4.2 °C 1013.4 hPa Calm     69% 0 mm 0.0 W/m2
03:46 9.5 °C 4.1 °C 1013.4 hPa Calm     69% 0 mm 0.0 W/m2
03:51 9.4 °C 4.2 °C 1013.4 hPa Calm     70% 0 mm 0.0 W/m2
03:57 9.3 °C 4.1 °C 1013.4 hPa Calm     70% 0 mm 0.0 W/m2
04:02 9.2 °C 3.8 °C 1013.4 hPa Calm     69% 0 mm 0.0 W/m2
04:07 9 °C 4 °C 1013.4 hPa Calm     71% 0 mm 0.0 W/m2
04:12 9 °C 4 °C 1013.8 hPa Calm     71% 0 mm 0.0 W/m2
04:22 8.8 °C 3.6 °C 1013.8 hPa Calm     70% 0 mm 0.0 W/m2
04:32 8.4 °C 3.4 °C 1013.8 hPa Calm     71% 0 mm 0.0 W/m2
04:37 8.4 °C 3.6 °C 1014.1 hPa Calm     72% 0 mm 0.0 W/m2
04:42 8.4 °C 3.4 °C 1013.8 hPa Calm     71% 0 mm 0.0 W/m2
04:47 8.3 °C 3.4 °C 1014.1 hPa Calm     71% 0 mm 0.0 W/m2
04:53 8.3 °C 3.7 °C 1014.1 hPa Calm     73% 0 mm 0.0 W/m2
04:58 8.3 °C 3.9 °C 1014.1 hPa Calm     74% 0 mm 0.0 W/m2
05:03 8.3 °C 3.9 °C 1014.1 hPa Calm     74% 0 mm 0.0 W/m2
05:13 8.8 °C 4.4 °C 1014.4 hPa Calm     74% 0 mm 0.0 W/m2
05:18 8.9 °C 4.5 °C 1014.4 hPa Calm     74% 0 mm 0.0 W/m2
05:23 8.9 °C 4.5 °C 1014.8 hPa Calm     74% 0 mm 0.0 W/m2
05:29 8.8 °C 4.4 °C 1014.8 hPa Calm     74% 0 mm 0.0 W/m2
05:34 8.5 °C 4.3 °C 1015.1 hPa Calm     75% 0 mm 0.0 W/m2
05:44 8.9 °C 4.9 °C 1015.5 hPa Calm     76% 0 mm 0.0 W/m2
05:50 9.2 °C 4.8 °C 1015.5 hPa Calm     74% 0 mm 0.0 W/m2
05:55 9.4 °C 5 °C 1015.5 hPa South 11.1 km/h 16.1 km/h 74% 0 mm 0.0 W/m2
06:00 9.4 °C 5 °C 1015.5 hPa South 13 km/h 14.5 km/h 74% 0 mm 0.0 W/m2
06:05 9.3 °C 5.1 °C 1015.1 hPa South 13 km/h 16.1 km/h 75% 0 mm 0.0 W/m2
06:10 9.2 °C 5.2 °C 1015.1 hPa South 11.1 km/h 12.9 km/h 76% 0 mm 0.0 W/m2
06:15 9.1 °C 5.1 °C 1015.1 hPa South 7.9 km/h 9.7 km/h 76% 0 mm 5.0 W/m2
06:20 9 °C 5.2 °C 1015.1 hPa South 11.1 km/h 11.3 km/h 77% 0 mm 9.0 W/m2
06:25 8.8 °C 5 °C 1014.8 hPa South 11.1 km/h 11.3 km/h 77% 0 mm 14.0 W/m2
06:30 8.8 °C 4.8 °C 1014.8 hPa South 7.9 km/h 11.3 km/h 76% 0 mm 19.0 W/m2
06:35 8.8 °C 4.8 °C 1015.1 hPa South 9.7 km/h 12.9 km/h 76% 0 mm 30.0 W/m2
06:40 8.8 °C 4.8 °C 1014.8 hPa South 9.7 km/h 11.3 km/h 76% 0 mm 46.0 W/m2
06:46 8.9 °C 5.1 °C 1015.1 hPa South 9.7 km/h 16.1 km/h 77% 0 mm 65.0 W/m2
07:19 9.9 °C 5.5 °C 1015.8 hPa South 9.7 km/h 16.1 km/h 74% 0 mm 144.0 W/m2
07:46 10.7 °C 5.9 °C 1016.5 hPa South 16.3 km/h 20.9 km/h 72% 0 mm 269.0 W/m2
08:28 11.9 °C 6.4 °C 1016.8 hPa SSW 13 km/h 17.7 km/h 69% 0 mm 431.0 W/m2
08:39 12.2 °C 6.3 °C 1016.8 hPa SSW 13 km/h 22.5 km/h 67% 0 mm 468.0 W/m2
09:08 13.4 °C 6.3 °C 1016.8 hPa SSW 14.3 km/h 22.5 km/h 62% 0 mm 557.0 W/m2
09:13 13.6 °C 6.2 °C 1016.8 hPa SSW 17.7 km/h 17.7 km/h 61% 0 mm 598.0 W/m2
09:20 13.9 °C 6.3 °C 1016.8 hPa SSW 16.3 km/h 19.3 km/h 60% 0 mm 613.0 W/m2
09:32 14.1 °C 6 °C 1017.2 hPa SSW 19.5 km/h 25.7 km/h 58% 0 mm 631.0 W/m2
09:46 14.5 °C 6.1 °C 1017.5 hPa SSW 14.3 km/h 24.1 km/h 57% 0 mm 668.0 W/m2
10:16 15.3 °C 5.5 °C 1017.5 hPa SSW 14.3 km/h 17.7 km/h 52% 0 mm 752.0 W/m2
10:26 15.8 °C 4.8 °C 1017.2 hPa SSW 9.7 km/h 14.5 km/h 48% 0 mm 775.0 W/m2
10:35 16.4 °C 4.4 °C 1017.2 hPa SSW 13 km/h 14.5 km/h 45% 0 mm 796.0 W/m2
10:44 17.2 °C 4.8 °C 1017.2 hPa SSW 16.3 km/h 17.7 km/h 44% 0 mm 821.0 W/m2
10:59 17.9 °C 4.1 °C 1016.8 hPa SSW 11.1 km/h 17.7 km/h 40% 0 mm 847.0 W/m2
11:08 18.3 °C 3.4 °C 1016.8 hPa SSW 11.1 km/h 12.9 km/h 37% 0 mm 865.0 W/m2
11:23 18.8 °C 3 °C 1016.5 hPa SSW 9.7 km/h 9.7 km/h 35% 0 mm 891.0 W/m2
11:34 19.5 °C 0.5 °C 1016.5 hPa Calm     28% 0 mm 907.0 W/m2
11:43 20.2 °C -1 °C 1016.1 hPa Calm     24% 0 mm 916.0 W/m2
11:49 20.6 °C -1.9 °C 1016.1 hPa SSW 7.9 km/h 16.1 km/h 22% 0 mm 921.0 W/m2
11:55 20.7 °C -1.8 °C 1016.1 hPa SSW 7.9 km/h 14.5 km/h 22% 0 mm 925.0 W/m2
12:03 21.1 °C -1.5 °C 1016.1 hPa SSW 7.9 km/h 14.5 km/h 22% 0 mm 928.0 W/m2
12:15 21.2 °C -1.4 °C 1016.1 hPa SSW 14.3 km/h 19.3 km/h 22% 0 mm 932.0 W/m2
12:45 21.6 °C -3.7 °C 1015.8 hPa SSW 17.7 km/h 25.7 km/h 18% 0 mm 939.0 W/m2
13:02 21.7 °C -4.4 °C 1015.5 hPa SSW 20.9 km/h 24.1 km/h 17% 0 mm 937.0 W/m2
13:41 22.3 °C -2.4 °C 1015.1 hPa SSW 16.3 km/h 17.7 km/h 19% 0 mm 900.0 W/m2
14:07 23.3 °C -1.6 °C 1014.8 hPa SSW 16.3 km/h 22.5 km/h 19% 0 mm 858.0 W/m2
14:15 23.5 °C -2.2 °C 1014.8 hPa SSW 14.3 km/h 20.9 km/h 18% 0 mm 840.0 W/m2
14:25 23.4 °C -2.3 °C 1014.4 hPa SSW 20.9 km/h 22.5 km/h 18% 0 mm 821.0 W/m2
14:34 23.8 °C -2.7 °C 1014.8 hPa SSW 16.3 km/h 19.3 km/h 17% 0 mm 800.0 W/m2
14:39 23.7 °C -2.8 °C 1014.4 hPa SSW 13 km/h 20.9 km/h 17% 0 mm 795.0 W/m2
14:50 23.6 °C -2.9 °C 1014.4 hPa SSW 11.1 km/h 17.7 km/h 17% 0 mm 768.0 W/m2
14:55 23.9 °C -2.6 °C 1014.4 hPa SSW 7.9 km/h 22.5 km/h 17% 0 mm 758.0 W/m2
15:01 24.1 °C -2.5 °C 1014.4 hPa SSW 9.7 km/h 16.1 km/h 17% 0 mm 744.0 W/m2
15:06 24 °C -2.6 °C 1014.4 hPa SSW 11.1 km/h 20.9 km/h 17% 0 mm 733.0 W/m2
15:12 24.1 °C -2.5 °C 1014.4 hPa SSW 16.3 km/h 20.9 km/h 17% 0 mm 719.0 W/m2
15:33 24 °C -3.4 °C 1014.1 hPa SSW 13 km/h 20.9 km/h 16% 0 mm 663.0 W/m2
15:44 24 °C -3.4 °C 1014.1 hPa South 17.7 km/h 24.1 km/h 16% 0 mm 636.0 W/m2
15:54 23.8 °C -3.5 °C 1013.8 hPa South 13 km/h 16.1 km/h 16% 0 mm 606.0 W/m2
16:05 23.8 °C -3.5 °C 1013.8 hPa SSW 7.9 km/h 16.1 km/h 16% 0 mm 575.0 W/m2
16:21 24.5 °C -4.8 °C 1013.4 hPa SSW 11.1 km/h 19.3 km/h 14% 0 mm 524.0 W/m2
16:35 24.4 °C -6.9 °C 1013.8 hPa SSW 19.5 km/h 25.7 km/h 12% 0 mm 476.0 W/m2
16:50 24.2 °C -6 °C 1013.8 hPa SSW 16.3 km/h 25.7 km/h 13% 0 mm 425.0 W/m2
16:55 24.1 °C -7.1 °C 1013.8 hPa South 24.1 km/h 29 km/h 12% 0 mm 390.0 W/m2
17:09 24.3 °C -8.1 °C 1013.8 hPa South 24.1 km/h 25.7 km/h 11% 0 mm 353.0 W/m2
17:20 23.9 °C -7.2 °C 1013.8 hPa South 16.3 km/h 22.5 km/h 12% 0 mm 316.0 W/m2
17:30 23.7 °C -6.4 °C 1014.1 hPa SSW 16.3 km/h 24.1 km/h 13% 0 mm 279.0 W/m2
17:40 23.7 °C -7.4 °C 1013.8 hPa SSW 17.7 km/h 22.5 km/h 12% 0 mm 246.0 W/m2
17:45 23.4 °C -8.8 °C 1014.1 hPa South 20.9 km/h 27.4 km/h 11% 0 mm 202.0 W/m2
17:55 23.4 °C -11.3 °C 1014.1 hPa South 13 km/h 17.7 km/h 9% 0 mm 156.0 W/m2
18:10 23.2 °C -11.4 °C 1014.1 hPa South 19.5 km/h 22.5 km/h 9% 0 mm 97.0 W/m2
18:17 23.1 °C -9 °C 1014.1 hPa South 14.3 km/h 20.9 km/h 11% 0 mm 77.0 W/m2
18:27 22.7 °C -8.2 °C 1014.1 hPa South 20.9 km/h 24.1 km/h 12% 0 mm 44.0 W/m2
19:26 20.8 °C -0.5 °C 1014.1 hPa South 19.5 km/h 24.1 km/h 24% 0 mm 0.0 W/m2
19:36 20.5 °C -0.2 °C 1014.1 hPa South 20.9 km/h 22.5 km/h 25% 0 mm 0.0 W/m2
19:46 20.2 °C 0.6 °C 1014.1 hPa SSW 9.7 km/h 14.5 km/h 27% 0 mm 0.0 W/m2
20:00 19.9 °C 0.3 °C 1014.4 hPa South 11.1 km/h 17.7 km/h 27% 0 mm 0.0 W/m2
20:11 19.8 °C 0.8 °C 1014.4 hPa South 16.3 km/h 20.9 km/h 28% 0 mm 0.0 W/m2
20:21 19.7 °C 1.2 °C 1014.4 hPa South 16.3 km/h 19.3 km/h 29% 0 mm 0.0 W/m2
20:31 19.4 °C 1.8 °C 1014.8 hPa South 19.5 km/h 22.5 km/h 31% 0 mm 0.0 W/m2
20:36 19.2 °C 2.1 °C 1014.8 hPa South 11.1 km/h 20.9 km/h 32% 0 mm 0.0 W/m2
20:42 19.2 °C 2.1 °C 1014.8 hPa South 11.1 km/h 20.9 km/h 32% 0 mm 0.0 W/m2
20:51 18.9 °C 2.7 °C 1014.8 hPa South 16.3 km/h 19.3 km/h 34% 0 mm 0.0 W/m2
21:06 18.5 °C 3.1 °C 1014.8 hPa South 19.5 km/h 24.1 km/h 36% 0 mm 0.0 W/m2
21:27 18.2 °C 4.4 °C 1015.1 hPa South 19.5 km/h 27.4 km/h 40% 0 mm 0.0 W/m2
21:41 17.7 °C 5 °C 1015.1 hPa South 16.3 km/h 24.1 km/h 43% 0 mm 0.0 W/m2
21:49 17.2 °C 5.2 °C 1015.5 hPa South 20.9 km/h 27.4 km/h 45% 0 mm 0.0 W/m2
22:01 16.7 °C 5.3 °C 1015.5 hPa SSE 22.7 km/h 25.7 km/h 47% 0 mm 0.0 W/m2
22:09 16.4 °C 5.4 °C 1015.1 hPa SSE 14.3 km/h 19.3 km/h 48% 0 mm 0.0 W/m2
22:15 16.2 °C 5.5 °C 1015.5 hPa SSE 22.7 km/h 24.1 km/h 49% 0 mm 0.0 W/m2
22:25 15.9 °C 5.8 °C 1015.5 hPa SSE 17.7 km/h 19.3 km/h 51% 0 mm 0.0 W/m2
22:33 15.7 °C 5.6 °C 1015.5 hPa SSE 11.1 km/h 19.3 km/h 51% 0 mm 0.0 W/m2
Canyon Roadhouse, Fishriver Canyon, Namibia
Compliments of Weather Underground - 2.25 mb